METAR Data
IDs: Format: Raw Decoded Include TAF

Data at: 0153 UTC 26 Apr 2019

PASA 260147Z AUTO 26004KT 4SM UP FEW009 OVC015 M02/M04 A3037 RMK AO2 UPB28SNB19E28 P0000 FZRANO $
PASA 260140Z AUTO 27006KT 5SM UP SCT009 BKN013 OVC020 M02/M04 A3038 RMK AO2 UPB28SNB19E28 P0000 FZRANO $
PASA 252156Z AUTO 17007KT 10SM OVC021 M01/M06 A3036 RMK AO2 SLP284 T10111061 FZRANO $
PASA 252056Z AUTO 18007KT 10SM OVC021 01/M07 A3036 RMK AO2 SLP283 T00061067 52007 FZRANO $
PASA 251956Z AUTO 00000KT 10SM OVC019 M01/M05 A3035 RMK AO2 SLP280 T10111050 FZRANO $
PASA 251856Z AUTO 12003KT 10SM OVC017 M04/M07 A3034 RMK AO2 SLP278 T10391067 FZRANO $
PASA 251820Z AUTO 15003KT 5SM HZ OVC017 M04/M07 A3034 RMK AO2 FZRANO $
PASA 251812Z AUTO 00000KT 2SM HZ OVC017 M04/M07 A3034 RMK AO2 FZRANO $
PASA 251756Z AUTO 14005KT 7SM OVC017 M04/M07 A3034 RMK AO2 SLP275 60000 T10441067 11044 21056 53008 FZRANO $
PASA 251456Z AUTO 11003KT 10SM OVC015 M06/M07 A3031 RMK AO2 SLP267 T10561072 51006 FZRANO $
PASA 251441Z AUTO 09003KT 10SM OVC013 M06/M07 A3031 RMK AO2 FZRANO $
PASA 251356Z AUTO 08003KT 10SM OVC015 M06/M07 A3031 RMK AO2 SLP265 T10561072 FZRANO $
PASA 251256Z AUTO 08003KT 10SM OVC015 M06/M07 A3030 RMK AO2 SLP264 T10561072 FZRANO $
PASA 251156Z AUTO 08003KT 10SM OVC015 M06/M08 A3030 RMK AO2 SLP261 T10561078 11039 21056 51008 FZRANO $
PASA 251056Z AUTO 09003KT 10SM OVC017 M06/M07 A3029 RMK AO2 SLP258 T10561072 FZRANO $
PASA 250956Z AUTO 00000KT 10SM OVC017 M06/M07 A3028 RMK AO2 SLP257 T10561072 FZRANO $
PASA 250856Z AUTO 00000KT 10SM OVC017 M05/M07 A3027 RMK AO2 SLP252 T10501072 410111072 53015 FZRANO $
PASA 250822Z AUTO 00000KT 10SM OVC015 M05/M07 A3026 RMK AO2 FZRANO $
PASA 250756Z AUTO 04004KT 10SM OVC013 M05/M07 A3025 RMK AO2 SLP247 T10501072 FZRANO $
PASA 250656Z AUTO 00000KT 10SM OVC013 M04/M07 A3024 RMK AO2 SLP244 T10441072 FZRANO $
PASA 250556Z AUTO 06003KT 10SM OVC013 M04/M07 A3023 RMK AO2 SLP238 60000 T10391072 11011 21039 53008 FZRANO $
PASA 250316Z AUTO 02006KT 10SM OVC015 M03/M07 A3021 RMK AO2 FZRANO $
PASA 250256Z AUTO 02006KT 10SM OVC013 M03/M07 A3020 RMK AO2 SLP230 60000 T10281067 51008 FZRANO $
PASA 250156Z AUTO 36005KT 10SM OVC011 M02/M07 A3019 RMK AO2 UPB03E47SNE03B15E27B30E41 SLP227 P0000 T10171067 FZRANO $
PASA 250038Z AUTO 35005KT 9SM -SN OVC011 M02/M07 A3018 RMK AO2 SNE12B34 P0000 FZRANO $
PASA 242256Z AUTO 36004KT 9SM -SN OVC009 M02/M07 A3017 RMK AO2 SLP218 P0000 T10221067 FZRANO $
PASA 242156Z AUTO 02004KT 5SM -SN OVC009 M02/M07 A3016 RMK AO2 SLP214 P0000 T10221067 FZRANO $
PASA 242056Z AUTO 33004KT 8SM -SN OVC009 M02/M06 A3014 RMK AO2 SLP210 P0000 60000 T10171061 51010 FZRANO $
PASA 242043Z AUTO 00000KT 9SM -SN BKN009 OVC013 M03/M06 A3014 RMK AO2 P0000 FZRANO $
PASA 241956Z AUTO 24003KT 9SM -SN OVC009 M05/M07 A3014 RMK AO2 SLP207 P0000 T10501072 FZRANO $
PASA 241856Z AUTO 24004KT 9SM -SN OVC009 M06/M08 A3012 RMK AO2 SNB1757 SLP202 P0000 T10611078 FZRANO $
PASA 241756Z AUTO 23004KT 10SM OVC009 M07/M08 A3011 RMK AO2 SLP199 60000 T10671083 11061 21072 53014 FZRANO $
PASA 241556Z AUTO 22004KT 10SM OVC011 M07/M08 A3008 RMK AO2 SLP189 T10671078 FZRANO $
PASA 241444Z AUTO 20003KT 10SM BKN009 OVC013 M07/M08 A3007 RMK AO2 FZRANO $